ASA1461 LGAV-LTFM
Flight info
| Callsign | ASA1461 |
|---|---|
| Flight time | 1h 2m |
| Altitude | 33000 |
| Route | KRO UN604 INBET |
| Aircraft | B738/M-SDE2E3FGHIRWXY/LB1 |
Departure
| Time | 2026-05-07 14:02 |
|---|---|
| Airport | Athens Eleftherios Venizelos International Airport (LGAV) |
Arrival
| Time | 2026-05-07 15:05 |
|---|---|
| Airport | İstanbul Airport (LTFM) |
| Time | Latitude | Longitude | Altitude | Speed | Heading |
|---|---|---|---|---|---|
| 2026-05-07 13:33 | 37.94758 | 23.96213 | 299 ft | 0 kts | 249° |
| 2026-05-07 13:56 | 37.94742 | 23.96181 | 298 ft | 10 kts | 230° |
| 2026-05-07 13:56 | 37.94671 | 23.96111 | 295 ft | 13 kts | 214° |
| 2026-05-07 13:56 | 37.94598 | 23.96123 | 293 ft | 11 kts | 117° |
| 2026-05-07 13:56 | 37.94626 | 23.96211 | 293 ft | 12 kts | 39° |
| 2026-05-07 13:57 | 37.94686 | 23.96267 | 298 ft | 10 kts | 36° |
| 2026-05-07 13:57 | 37.94750 | 23.96328 | 300 ft | 12 kts | 36° |
| 2026-05-07 13:57 | 37.94833 | 23.96407 | 301 ft | 17 kts | 36° |
| 2026-05-07 13:57 | 37.94939 | 23.96509 | 306 ft | 20 kts | 37° |
| 2026-05-07 13:58 | 37.95065 | 23.96627 | 312 ft | 25 kts | 36° |
| 2026-05-07 13:58 | 37.95208 | 23.96763 | 320 ft | 23 kts | 36° |
| 2026-05-07 13:58 | 37.95298 | 23.96883 | 328 ft | 14 kts | 93° |
| 2026-05-07 13:58 | 37.95269 | 23.96947 | 329 ft | 2 kts | 127° |
| 2026-05-07 13:59 | 37.95268 | 23.96947 | 329 ft | 0 kts | 127° |
| 2026-05-07 14:00 | 37.95252 | 23.96977 | 329 ft | 10 kts | 124° |
| 2026-05-07 14:01 | 37.95193 | 23.97023 | 330 ft | 11 kts | 203° |
| 2026-05-07 14:01 | 37.95164 | 23.97001 | 328 ft | 0 kts | 217° |
| 2026-05-07 14:01 | 37.95121 | 23.96959 | 325 ft | 39 kts | 217° |
| 2026-05-07 14:02 | 37.94586 | 23.96454 | 293 ft | 145 kts | 217° |
| 2026-05-07 14:02 | 37.93685 | 23.95596 | 1086 ft | 164 kts | 216° |
| 2026-05-07 14:02 | 37.92755 | 23.94816 | 2081 ft | 172 kts | 208° |
| 2026-05-07 14:02 | 37.91688 | 23.94108 | 2856 ft | 186 kts | 208° |
| 2026-05-07 14:03 | 37.90506 | 23.93298 | 3542 ft | 205 kts | 208° |
| 2026-05-07 14:03 | 37.89193 | 23.92400 | 4186 ft | 226 kts | 208° |
| 2026-05-07 14:03 | 37.87746 | 23.91411 | 4960 ft | 243 kts | 208° |
| 2026-05-07 14:03 | 37.86257 | 23.90393 | 5949 ft | 251 kts | 208° |
| 2026-05-07 14:04 | 37.84703 | 23.89331 | 6837 ft | 267 kts | 208° |
| 2026-05-07 14:04 | 37.83060 | 23.88209 | 7849 ft | 276 kts | 208° |
| 2026-05-07 14:04 | 37.81385 | 23.87066 | 8898 ft | 282 kts | 208° |
| 2026-05-07 14:04 | 37.79629 | 23.85868 | 9547 ft | 293 kts | 208° |
| 2026-05-07 14:05 | 37.77788 | 23.84854 | 9585 ft | 289 kts | 192° |
| 2026-05-07 14:05 | 37.75814 | 23.84901 | 9601 ft | 287 kts | 162° |
| 2026-05-07 14:05 | 37.74154 | 23.86234 | 9612 ft | 292 kts | 130° |
| 2026-05-07 14:05 | 37.73102 | 23.88540 | 10376 ft | 306 kts | 115° |
| 2026-05-07 14:06 | 37.72160 | 23.90862 | 11658 ft | 302 kts | 120° |
| 2026-05-07 14:06 | 37.71118 | 23.93109 | 12737 ft | 303 kts | 122° |
| 2026-05-07 14:06 | 37.69942 | 23.95305 | 13752 ft | 306 kts | 125° |
| 2026-05-07 14:06 | 37.68722 | 23.97514 | 14720 ft | 310 kts | 124° |
| 2026-05-07 14:07 | 37.67499 | 23.99750 | 15644 ft | 314 kts | 124° |
| 2026-05-07 14:07 | 37.66257 | 24.02021 | 16535 ft | 318 kts | 124° |
| 2026-05-07 14:07 | 37.64984 | 24.04350 | 16975 ft | 329 kts | 123° |
| 2026-05-07 14:07 | 37.63957 | 24.06973 | 17000 ft | 347 kts | 105° |
| 2026-05-07 14:08 | 37.63792 | 24.10114 | 17007 ft | 375 kts | 81° |
| 2026-05-07 14:08 | 37.64704 | 24.13242 | 16992 ft | 387 kts | 57° |
| 2026-05-07 14:08 | 37.66527 | 24.15670 | 17007 ft | 387 kts | 37° |
| 2026-05-07 14:08 | 37.68728 | 24.17628 | 16992 ft | 387 kts | 36° |
| 2026-05-07 14:09 | 37.70812 | 24.19773 | 16999 ft | 387 kts | 42° |
| 2026-05-07 14:09 | 37.72757 | 24.22101 | 17000 ft | 387 kts | 44° |
| 2026-05-07 14:09 | 37.74659 | 24.24487 | 17000 ft | 387 kts | 45° |
| 2026-05-07 14:09 | 37.76559 | 24.26911 | 16999 ft | 387 kts | 45° |
| 2026-05-07 14:10 | 37.78429 | 24.29330 | 16999 ft | 387 kts | 45° |
| 2026-05-07 14:10 | 37.80278 | 24.31745 | 16999 ft | 387 kts | 46° |
| 2026-05-07 14:10 | 37.82158 | 24.34214 | 16999 ft | 387 kts | 46° |
| 2026-05-07 14:10 | 37.84005 | 24.36649 | 17003 ft | 390 kts | 46° |
| 2026-05-07 14:11 | 37.85916 | 24.39175 | 17001 ft | 410 kts | 46° |
| 2026-05-07 14:11 | 37.87931 | 24.41843 | 16995 ft | 422 kts | 46° |
| 2026-05-07 14:11 | 37.89943 | 24.44511 | 16999 ft | 421 kts | 46° |
| 2026-05-07 14:11 | 37.91972 | 24.47205 | 16999 ft | 421 kts | 46° |
| 2026-05-07 14:12 | 37.93981 | 24.49876 | 16999 ft | 421 kts | 46° |
| 2026-05-07 14:12 | 37.96001 | 24.52564 | 16999 ft | 421 kts | 46° |
| 2026-05-07 14:12 | 37.98015 | 24.55245 | 16999 ft | 421 kts | 46° |
| 2026-05-07 14:12 | 38.00014 | 24.57910 | 16999 ft | 421 kts | 46° |
| 2026-05-07 14:13 | 38.02026 | 24.60594 | 16999 ft | 421 kts | 46° |
| 2026-05-07 14:13 | 38.04048 | 24.63295 | 16999 ft | 421 kts | 46° |
| 2026-05-07 14:13 | 38.06043 | 24.65961 | 17000 ft | 421 kts | 46° |
| 2026-05-07 14:13 | 38.08049 | 24.68644 | 16999 ft | 421 kts | 46° |
| 2026-05-07 14:14 | 38.10055 | 24.71330 | 17000 ft | 421 kts | 46° |
| 2026-05-07 14:14 | 38.12100 | 24.74070 | 17161 ft | 431 kts | 46° |
| 2026-05-07 14:14 | 38.14133 | 24.76797 | 18022 ft | 429 kts | 46° |
| 2026-05-07 14:14 | 38.16208 | 24.79582 | 18609 ft | 435 kts | 46° |
| 2026-05-07 14:15 | 38.18258 | 24.82337 | 19348 ft | 435 kts | 46° |
| 2026-05-07 14:15 | 38.20343 | 24.85140 | 19908 ft | 440 kts | 46° |
| 2026-05-07 14:15 | 38.22466 | 24.87998 | 20528 ft | 443 kts | 46° |
| 2026-05-07 14:15 | 38.24580 | 24.90845 | 21069 ft | 446 kts | 46° |
| 2026-05-07 14:16 | 38.26713 | 24.93721 | 21601 ft | 450 kts | 46° |
| 2026-05-07 14:16 | 38.28837 | 24.96588 | 22101 ft | 453 kts | 46° |
| 2026-05-07 14:16 | 38.31011 | 24.99525 | 22597 ft | 457 kts | 46° |
| 2026-05-07 14:16 | 38.33176 | 25.02451 | 23066 ft | 460 kts | 46° |
| 2026-05-07 14:17 | 38.35380 | 25.05434 | 23526 ft | 463 kts | 46° |
| 2026-05-07 14:17 | 38.37568 | 25.08399 | 23966 ft | 466 kts | 46° |
| 2026-05-07 14:17 | 38.39805 | 25.11432 | 24399 ft | 469 kts | 46° |
| 2026-05-07 14:17 | 38.42009 | 25.14491 | 24810 ft | 472 kts | 49° |
| 2026-05-07 14:18 | 38.44104 | 25.17714 | 25216 ft | 475 kts | 51° |
| 2026-05-07 14:18 | 38.46162 | 25.20991 | 25596 ft | 477 kts | 51° |
| 2026-05-07 14:18 | 38.48255 | 25.24276 | 25969 ft | 480 kts | 50° |
| 2026-05-07 14:18 | 38.50373 | 25.27570 | 26480 ft | 479 kts | 50° |
| 2026-05-07 14:19 | 38.52462 | 25.30821 | 27018 ft | 477 kts | 50° |
| 2026-05-07 14:19 | 38.54553 | 25.34081 | 27488 ft | 477 kts | 50° |
| 2026-05-07 14:19 | 38.56648 | 25.37349 | 27997 ft | 475 kts | 50° |
| 2026-05-07 14:19 | 38.58751 | 25.40628 | 28493 ft | 474 kts | 50° |
| 2026-05-07 14:20 | 38.60820 | 25.43857 | 28974 ft | 473 kts | 50° |
| 2026-05-07 14:20 | 38.62885 | 25.47082 | 29448 ft | 472 kts | 50° |
| 2026-05-07 14:20 | 38.64973 | 25.50345 | 29921 ft | 471 kts | 50° |
| 2026-05-07 14:20 | 38.67039 | 25.53576 | 30382 ft | 471 kts | 50° |
| 2026-05-07 14:21 | 38.69093 | 25.56792 | 30834 ft | 470 kts | 50° |
| 2026-05-07 14:21 | 38.71146 | 25.60009 | 31280 ft | 469 kts | 50° |
| 2026-05-07 14:21 | 38.73200 | 25.63230 | 31720 ft | 468 kts | 50° |
| 2026-05-07 14:21 | 38.75249 | 25.66446 | 32154 ft | 467 kts | 51° |
| 2026-05-07 14:22 | 38.77304 | 25.69675 | 32677 ft | 464 kts | 51° |
| 2026-05-07 14:22 | 38.79298 | 25.72811 | 32984 ft | 460 kts | 51° |
| 2026-05-07 14:22 | 38.81334 | 25.76017 | 33001 ft | 459 kts | 51° |
| 2026-05-07 14:23 | 38.85315 | 25.82292 | 33000 ft | 456 kts | 51° |
| 2026-05-07 14:23 | 38.89302 | 25.88591 | 33000 ft | 455 kts | 51° |
| 2026-05-07 14:24 | 38.93285 | 25.94896 | 33000 ft | 455 kts | 51° |
| 2026-05-07 14:24 | 38.97261 | 26.01201 | 32999 ft | 456 kts | 51° |
| 2026-05-07 14:25 | 39.01234 | 26.07514 | 33000 ft | 455 kts | 51° |
| 2026-05-07 14:25 | 39.05208 | 26.13841 | 33000 ft | 455 kts | 51° |
| 2026-05-07 14:26 | 39.09168 | 26.20158 | 32999 ft | 455 kts | 51° |
| 2026-05-07 14:26 | 39.13131 | 26.26493 | 33000 ft | 455 kts | 51° |
| 2026-05-07 14:27 | 39.17087 | 26.32828 | 33000 ft | 455 kts | 51° |
| 2026-05-07 14:27 | 39.21084 | 26.39117 | 32999 ft | 455 kts | 47° |
| 2026-05-07 14:28 | 39.25837 | 26.44431 | 33000 ft | 455 kts | 32° |
| 2026-05-07 14:28 | 39.31319 | 26.48445 | 33000 ft | 456 kts | 29° |
| 2026-05-07 14:29 | 39.36658 | 26.52844 | 33000 ft | 455 kts | 35° |
| 2026-05-07 14:29 | 39.41807 | 26.57586 | 33000 ft | 455 kts | 34° |
| 2026-05-07 14:30 | 39.46978 | 26.62236 | 32999 ft | 455 kts | 34° |
| 2026-05-07 14:30 | 39.52166 | 26.66916 | 33000 ft | 455 kts | 35° |
| 2026-05-07 14:31 | 39.57355 | 26.71598 | 33000 ft | 455 kts | 35° |
| 2026-05-07 14:31 | 39.62515 | 26.76259 | 33000 ft | 455 kts | 35° |
| 2026-05-07 14:32 | 39.67718 | 26.80966 | 33000 ft | 455 kts | 35° |
| 2026-05-07 14:32 | 39.72878 | 26.85641 | 32999 ft | 455 kts | 35° |
| 2026-05-07 14:33 | 39.78057 | 26.90342 | 33000 ft | 455 kts | 35° |
| 2026-05-07 14:33 | 39.83251 | 26.95068 | 33000 ft | 455 kts | 35° |
| 2026-05-07 14:34 | 39.88405 | 26.99766 | 32999 ft | 455 kts | 35° |
| 2026-05-07 14:34 | 39.93601 | 27.04510 | 32999 ft | 455 kts | 35° |
| 2026-05-07 14:35 | 39.98764 | 27.09234 | 33000 ft | 455 kts | 35° |
| 2026-05-07 14:35 | 40.03914 | 27.13954 | 32999 ft | 455 kts | 35° |
| 2026-05-07 14:36 | 40.09085 | 27.18703 | 32999 ft | 455 kts | 35° |
| 2026-05-07 14:36 | 40.14234 | 27.23438 | 32999 ft | 455 kts | 34° |
| 2026-05-07 14:37 | 40.19864 | 27.27077 | 32999 ft | 455 kts | 15° |
| 2026-05-07 14:37 | 40.26136 | 27.27951 | 33000 ft | 456 kts | 2° |
| 2026-05-07 14:37 | 40.29312 | 27.28126 | 32999 ft | 456 kts | 3° |
| 2026-05-07 14:38 | 40.35596 | 27.28611 | 33006 ft | 455 kts | 3° |
| 2026-05-07 14:38 | 40.41910 | 27.29108 | 33000 ft | 455 kts | 2° |
| 2026-05-07 14:39 | 40.48213 | 27.29526 | 33000 ft | 455 kts | 2° |
| 2026-05-07 14:39 | 40.54505 | 27.29957 | 33000 ft | 456 kts | 2° |
| 2026-05-07 14:40 | 40.73341 | 27.31285 | 32997 ft | 456 kts | 6° |
| 2026-05-07 14:40 | 40.76443 | 27.32198 | 33005 ft | 455 kts | 19° |
| 2026-05-07 14:40 | 40.79343 | 27.33710 | 33001 ft | 456 kts | 22° |
| 2026-05-07 14:41 | 40.85216 | 27.36781 | 32999 ft | 456 kts | 20° |
| 2026-05-07 14:41 | 40.91128 | 27.39707 | 32963 ft | 453 kts | 20° |
| 2026-05-07 14:42 | 40.94050 | 27.41164 | 32295 ft | 447 kts | 20° |
| 2026-05-07 14:42 | 40.96951 | 27.42629 | 31545 ft | 444 kts | 23° |
| 2026-05-07 14:42 | 40.99561 | 27.44687 | 31460 ft | 441 kts | 40° |
| 2026-05-07 14:42 | 41.01566 | 27.47791 | 31111 ft | 454 kts | 59° |
| 2026-05-07 14:43 | 41.02681 | 27.51609 | 30456 ft | 451 kts | 79° |
| 2026-05-07 14:43 | 41.02743 | 27.55699 | 29626 ft | 450 kts | 99° |
| 2026-05-07 14:43 | 41.01696 | 27.59652 | 28668 ft | 458 kts | 120° |
| 2026-05-07 14:43 | 40.99862 | 27.63054 | 27417 ft | 462 kts | 127° |
| 2026-05-07 14:44 | 40.97964 | 27.66435 | 26071 ft | 465 kts | 124° |
| 2026-05-07 14:44 | 40.96317 | 27.70054 | 25319 ft | 452 kts | 117° |
| 2026-05-07 14:44 | 40.95075 | 27.73775 | 24583 ft | 441 kts | 110° |
| 2026-05-07 14:44 | 40.94304 | 27.77669 | 23830 ft | 435 kts | 100° |
| 2026-05-07 14:45 | 40.93914 | 27.81624 | 23078 ft | 436 kts | 95° |
| 2026-05-07 14:45 | 40.93760 | 27.85574 | 22429 ft | 426 kts | 89° |
| 2026-05-07 14:45 | 40.94191 | 27.89382 | 22169 ft | 428 kts | 72° |
| 2026-05-07 14:45 | 40.95506 | 27.92904 | 21920 ft | 431 kts | 54° |
| 2026-05-07 14:46 | 40.97594 | 27.95726 | 21664 ft | 430 kts | 36° |
| 2026-05-07 14:46 | 41.00167 | 27.97659 | 21427 ft | 428 kts | 27° |
| 2026-05-07 14:46 | 41.02818 | 27.99392 | 21168 ft | 426 kts | 24° |
| 2026-05-07 14:46 | 41.05615 | 28.00704 | 20900 ft | 423 kts | 13° |
| 2026-05-07 14:47 | 41.08485 | 28.01028 | 20235 ft | 412 kts | 356° |
| 2026-05-07 14:47 | 41.11290 | 28.00673 | 19485 ft | 410 kts | 356° |
| 2026-05-07 14:47 | 41.14125 | 28.00586 | 18681 ft | 408 kts | 0° |
| 2026-05-07 14:47 | 41.16908 | 28.00770 | 17899 ft | 400 kts | 8° |
| 2026-05-07 14:48 | 41.19557 | 28.01654 | 17148 ft | 393 kts | 19° |
| 2026-05-07 14:48 | 41.22093 | 28.03059 | 16373 ft | 396 kts | 25° |
| 2026-05-07 14:48 | 41.24456 | 28.04782 | 15564 ft | 389 kts | 32° |
| 2026-05-07 14:48 | 41.26643 | 28.06844 | 14626 ft | 386 kts | 38° |
| 2026-05-07 14:49 | 41.28653 | 28.09125 | 13772 ft | 380 kts | 45° |
| 2026-05-07 14:49 | 41.30115 | 28.11960 | 13108 ft | 370 kts | 68° |
| 2026-05-07 14:49 | 41.30561 | 28.15284 | 12431 ft | 373 kts | 92° |
| 2026-05-07 14:49 | 41.29922 | 28.18584 | 11699 ft | 366 kts | 117° |
| 2026-05-07 14:50 | 41.28581 | 28.21341 | 11186 ft | 353 kts | 124° |
| 2026-05-07 14:50 | 41.27119 | 28.23865 | 10822 ft | 338 kts | 134° |
| 2026-05-07 14:50 | 41.25282 | 28.25617 | 10661 ft | 318 kts | 158° |
| 2026-05-07 14:50 | 41.23132 | 28.26274 | 10526 ft | 319 kts | 172° |
| 2026-05-07 14:51 | 41.20989 | 28.26480 | 10343 ft | 303 kts | 184° |
| 2026-05-07 14:51 | 41.19013 | 28.25839 | 10207 ft | 287 kts | 200° |
| 2026-05-07 14:51 | 41.17139 | 28.25022 | 10016 ft | 280 kts | 195° |
| 2026-05-07 14:51 | 41.15264 | 28.24432 | 9689 ft | 277 kts | 185° |
| 2026-05-07 14:52 | 41.13394 | 28.24654 | 9343 ft | 272 kts | 164° |
| 2026-05-07 14:52 | 41.11626 | 28.25508 | 8989 ft | 268 kts | 156° |
| 2026-05-07 14:52 | 41.09956 | 28.26564 | 8629 ft | 266 kts | 151° |
| 2026-05-07 14:52 | 41.08388 | 28.27838 | 8291 ft | 263 kts | 146° |
| 2026-05-07 14:53 | 41.06876 | 28.29243 | 7945 ft | 268 kts | 143° |
| 2026-05-07 14:53 | 41.05392 | 28.30703 | 7585 ft | 265 kts | 143° |
| 2026-05-07 14:53 | 41.03946 | 28.32158 | 7254 ft | 261 kts | 142° |
| 2026-05-07 14:53 | 41.02515 | 28.33611 | 6930 ft | 257 kts | 142° |
| 2026-05-07 14:54 | 41.01142 | 28.35171 | 6605 ft | 263 kts | 131° |
| 2026-05-07 14:54 | 41.00110 | 28.37122 | 6284 ft | 258 kts | 118° |
| 2026-05-07 14:54 | 40.99406 | 28.39292 | 6000 ft | 253 kts | 107° |
| 2026-05-07 14:54 | 40.99035 | 28.41574 | 5768 ft | 259 kts | 96° |
| 2026-05-07 14:55 | 40.98986 | 28.43919 | 5567 ft | 250 kts | 87° |
| 2026-05-07 14:55 | 40.99068 | 28.46263 | 5420 ft | 257 kts | 87° |
| 2026-05-07 14:55 | 40.99143 | 28.48597 | 5249 ft | 250 kts | 87° |
| 2026-05-07 14:55 | 40.99217 | 28.50919 | 5026 ft | 255 kts | 87° |
| 2026-05-07 14:56 | 40.99291 | 28.53223 | 4806 ft | 248 kts | 87° |
| 2026-05-07 14:56 | 40.99365 | 28.55551 | 4593 ft | 254 kts | 87° |
| 2026-05-07 14:56 | 40.99437 | 28.57848 | 4373 ft | 247 kts | 87° |
| 2026-05-07 14:56 | 40.99511 | 28.60166 | 4169 ft | 251 kts | 87° |
| 2026-05-07 14:57 | 40.99582 | 28.62405 | 4069 ft | 238 kts | 87° |
| 2026-05-07 14:57 | 40.99649 | 28.64515 | 3909 ft | 220 kts | 87° |
| 2026-05-07 14:57 | 40.99729 | 28.66455 | 3823 ft | 202 kts | 83° |
| 2026-05-07 14:57 | 41.00029 | 28.68212 | 3741 ft | 189 kts | 69° |
| 2026-05-07 14:58 | 41.00608 | 28.69699 | 3660 ft | 177 kts | 54° |
| 2026-05-07 14:58 | 41.01424 | 28.70868 | 3476 ft | 172 kts | 38° |
| 2026-05-07 14:58 | 41.02438 | 28.71677 | 3262 ft | 167 kts | 22° |
| 2026-05-07 14:58 | 41.03549 | 28.72058 | 2964 ft | 167 kts | 5° |
| 2026-05-07 14:59 | 41.04689 | 28.72065 | 2920 ft | 162 kts | 358° |
| 2026-05-07 14:59 | 41.05834 | 28.72027 | 2888 ft | 165 kts | 359° |
| 2026-05-07 14:59 | 41.06984 | 28.71958 | 2889 ft | 166 kts | 355° |
| 2026-05-07 14:59 | 41.08147 | 28.71838 | 2891 ft | 166 kts | 356° |
| 2026-05-07 15:00 | 41.09290 | 28.71722 | 2886 ft | 163 kts | 356° |
| 2026-05-07 15:00 | 41.10410 | 28.71608 | 2891 ft | 162 kts | 356° |
| 2026-05-07 15:00 | 41.11529 | 28.71494 | 2891 ft | 162 kts | 356° |
| 2026-05-07 15:00 | 41.12649 | 28.71411 | 2892 ft | 161 kts | 358° |
| 2026-05-07 15:01 | 41.13743 | 28.71351 | 2788 ft | 151 kts | 358° |
| 2026-05-07 15:01 | 41.14795 | 28.71293 | 2423 ft | 153 kts | 358° |
| 2026-05-07 15:01 | 41.15853 | 28.71243 | 2078 ft | 153 kts | 359° |
| 2026-05-07 15:01 | 41.16890 | 28.71211 | 1901 ft | 147 kts | 359° |
| 2026-05-07 15:02 | 41.17907 | 28.71177 | 2018 ft | 147 kts | 359° |
| 2026-05-07 15:02 | 41.18895 | 28.71142 | 2000 ft | 143 kts | 358° |
| 2026-05-07 15:02 | 41.19877 | 28.71090 | 1857 ft | 138 kts | 358° |
| 2026-05-07 15:02 | 41.20828 | 28.71021 | 1655 ft | 136 kts | 357° |
| 2026-05-07 15:03 | 41.21774 | 28.70948 | 1472 ft | 136 kts | 356° |
| 2026-05-07 15:03 | 41.22703 | 28.70879 | 1294 ft | 135 kts | 358° |
| 2026-05-07 15:03 | 41.23647 | 28.70832 | 1089 ft | 135 kts | 358° |
| 2026-05-07 15:03 | 41.24579 | 28.70800 | 871 ft | 135 kts | 359° |
| 2026-05-07 15:04 | 41.25522 | 28.70771 | 649 ft | 134 kts | 359° |
| 2026-05-07 15:04 | 41.26437 | 28.70749 | 469 ft | 133 kts | 0° |
| 2026-05-07 15:04 | 41.27360 | 28.70725 | 353 ft | 126 kts | 359° |
| 2026-05-07 15:04 | 41.28126 | 28.70716 | 335 ft | 86 kts | 359° |
| 2026-05-07 15:05 | 41.28541 | 28.70735 | 334 ft | 43 kts | 23° |
| 2026-05-07 15:05 | 41.28690 | 28.70852 | 334 ft | 0 kts | 30° |
| 2026-05-07 15:06 | 41.28713 | 28.70869 | 334 ft | 10 kts | 29° |
| 2026-05-07 15:06 | 41.28820 | 28.70947 | 334 ft | 22 kts | 28° |
| 2026-05-07 15:07 | 41.28987 | 28.71069 | 334 ft | 32 kts | 29° |
| 2026-05-07 15:07 | 41.29224 | 28.71169 | 334 ft | 37 kts | 357° |
| 2026-05-07 15:07 | 41.29448 | 28.71172 | 334 ft | 11 kts | 27° |
| 2026-05-07 15:07 | 41.29463 | 28.71315 | 334 ft | 21 kts | 93° |
| 2026-05-07 15:08 | 41.29465 | 28.71542 | 334 ft | 29 kts | 89° |
| 2026-05-07 15:08 | 41.29469 | 28.71875 | 334 ft | 37 kts | 90° |
| 2026-05-07 15:08 | 41.29472 | 28.72176 | 334 ft | 27 kts | 89° |
| 2026-05-07 15:08 | 41.29474 | 28.72304 | 334 ft | 0 kts | 89° |
| 2026-05-07 15:09 | 41.29474 | 28.72318 | 334 ft | 7 kts | 89° |
| 2026-05-07 15:10 | 41.29475 | 28.72457 | 334 ft | 22 kts | 89° |
| 2026-05-07 15:10 | 41.29478 | 28.72745 | 334 ft | 36 kts | 89° |
| 2026-05-07 15:10 | 41.29421 | 28.72935 | 334 ft | 19 kts | 180° |
| 2026-05-07 15:10 | 41.29287 | 28.72940 | 334 ft | 21 kts | 179° |
| 2026-05-07 15:11 | 41.29131 | 28.72942 | 334 ft | 24 kts | 180° |
| 2026-05-07 15:11 | 41.28970 | 28.72945 | 334 ft | 22 kts | 178° |
| 2026-05-07 15:11 | 41.28814 | 28.72949 | 335 ft | 22 kts | 179° |
| 2026-05-07 15:11 | 41.28664 | 28.72952 | 334 ft | 21 kts | 179° |
| 2026-05-07 15:12 | 41.28504 | 28.72956 | 334 ft | 24 kts | 180° |
| 2026-05-07 15:12 | 41.28305 | 28.72960 | 334 ft | 32 kts | 179° |
| 2026-05-07 15:12 | 41.28048 | 28.72967 | 334 ft | 41 kts | 179° |
| 2026-05-07 15:12 | 41.27748 | 28.72974 | 334 ft | 41 kts | 179° |
| 2026-05-07 15:13 | 41.27511 | 28.72977 | 334 ft | 28 kts | 180° |
| 2026-05-07 15:13 | 41.27460 | 28.72979 | 334 ft | 0 kts | 177° |
| 2026-05-07 15:13 | 41.27457 | 28.72979 | 334 ft | 1 kts | 178° |
| 2026-05-07 15:13 | 41.27416 | 28.72985 | 334 ft | 9 kts | 162° |
| 2026-05-07 15:14 | 41.27383 | 28.73098 | 334 ft | 18 kts | 89° |
| 2026-05-07 15:14 | 41.27386 | 28.73302 | 334 ft | 24 kts | 89° |
| 2026-05-07 15:14 | 41.27388 | 28.73543 | 334 ft | 29 kts | 90° |
| 2026-05-07 15:14 | 41.27390 | 28.73844 | 334 ft | 34 kts | 90° |
| 2026-05-07 15:15 | 41.27394 | 28.74150 | 334 ft | 28 kts | 91° |
| 2026-05-07 15:15 | 41.27396 | 28.74388 | 334 ft | 25 kts | 89° |
| 2026-05-07 15:15 | 41.27396 | 28.74527 | 334 ft | 0 kts | 91° |
| 2026-05-07 15:17 | 41.27389 | 28.74566 | 334 ft | 10 kts | 122° |
| 2026-05-07 15:17 | 41.27278 | 28.74594 | 334 ft | 22 kts | 179° |
| 2026-05-07 15:17 | 41.27097 | 28.74599 | 334 ft | 29 kts | 178° |
| 2026-05-07 15:17 | 41.26878 | 28.74606 | 334 ft | 32 kts | 179° |
| 2026-05-07 15:18 | 41.26642 | 28.74611 | 334 ft | 34 kts | 179° |
| 2026-05-07 15:18 | 41.26474 | 28.74589 | 334 ft | 20 kts | 196° |
| 2026-05-07 15:18 | 41.26387 | 28.74591 | 334 ft | 10 kts | 144° |
| 2026-05-07 15:18 | 41.26347 | 28.74633 | 334 ft | 0 kts | 141° |